createdAt,value
2023-03-19T00:00:43.910Z,17.83
2023-03-19T00:03:10.991Z,17.97
2023-03-19T00:05:37.995Z,17.13
2023-03-19T00:08:05.470Z,17.10
2023-03-19T00:10:32.409Z,19.50
2023-03-19T00:12:59.317Z,22.77
2023-03-19T00:15:26.470Z,21.60
2023-03-19T00:17:54.303Z,20.77
2023-03-19T00:20:22.252Z,19.43
2023-03-19T00:22:49.236Z,20.17
2023-03-19T00:25:17.324Z,21.23
2023-03-19T00:27:44.675Z,19.13
2023-03-19T00:30:12.358Z,18.23
2023-03-19T00:32:40.546Z,16.90
2023-03-19T00:35:08.765Z,19.33
2023-03-19T00:37:36.387Z,19.67
2023-03-19T00:40:04.519Z,19.23
2023-03-19T00:42:32.055Z,19.00
2023-03-19T00:44:59.187Z,20.50
2023-03-19T00:47:27.112Z,19.93
2023-03-19T00:49:54.003Z,20.67
2023-03-19T00:52:21.153Z,22.50
2023-03-19T00:54:48.112Z,20.63
2023-03-19T00:57:15.252Z,20.53
2023-03-19T00:59:42.182Z,22.90
2023-03-19T01:02:09.106Z,19.80
2023-03-19T01:04:36.352Z,23.70
2023-03-19T01:07:03.499Z,20.70
2023-03-19T01:09:30.840Z,20.13
2023-03-19T01:11:57.743Z,19.93
2023-03-19T01:14:25.484Z,22.07
2023-03-19T01:16:52.403Z,20.23
2023-03-19T01:19:20.138Z,20.43
2023-03-19T01:21:47.184Z,21.30
2023-03-19T01:24:14.195Z,20.20
2023-03-19T01:26:41.545Z,19.57
2023-03-19T01:29:09.153Z,19.60
2023-03-19T01:31:37.330Z,18.97
2023-03-19T01:34:04.624Z,19.23
2023-03-19T01:36:31.595Z,20.63
2023-03-19T01:38:58.566Z,19.57
2023-03-19T01:41:25.781Z,20.40
2023-03-19T01:43:52.698Z,21.03
2023-03-19T01:46:36.505Z,20.57
2023-03-19T01:49:06.971Z,20.03
2023-03-19T01:51:39.680Z,21.37
2023-03-19T01:54:11.632Z,18.63
2023-03-19T01:56:39.780Z,17.70
2023-03-19T01:59:23.190Z,18.53
2023-03-19T02:02:08.227Z,18.77
2023-03-19T02:04:36.079Z,18.70
2023-03-19T02:07:04.040Z,18.43
2023-03-19T02:09:32.759Z,18.77
2023-03-19T02:12:01.714Z,20.93
2023-03-19T02:14:28.910Z,18.50
2023-03-19T02:16:56.176Z,18.00
2023-03-19T02:19:38.425Z,18.93
2023-03-19T02:22:06.737Z,18.53
2023-03-19T02:24:39.022Z,16.73
2023-03-19T02:27:09.233Z,18.23
2023-03-19T02:29:36.380Z,17.23
2023-03-19T02:32:03.818Z,19.83
2023-03-19T02:34:36.820Z,16.90
2023-03-19T02:37:15.051Z,17.87
2023-03-19T02:40:08.154Z,16.67
2023-03-19T02:42:35.454Z,16.53
2023-03-19T02:45:02.571Z,14.83
2023-03-19T02:47:29.627Z,14.00
2023-03-19T02:49:56.544Z,18.23
2023-03-19T02:52:23.511Z,17.23
2023-03-19T02:54:50.489Z,16.23
2023-03-19T02:57:17.500Z,15.13
2023-03-19T02:59:44.640Z,14.57
2023-03-19T03:02:11.758Z,13.27
2023-03-19T03:04:38.699Z,13.17
2023-03-19T03:07:06.275Z,13.50
2023-03-19T03:09:33.243Z,15.30
2023-03-19T03:12:00.984Z,13.37
2023-03-19T03:14:27.989Z,12.10
2023-03-19T03:16:54.904Z,14.13
2023-03-19T03:19:21.900Z,14.17
2023-03-19T03:21:48.957Z,11.77
2023-03-19T03:24:15.927Z,13.30
2023-03-19T03:26:44.229Z,13.37
2023-03-19T03:29:11.197Z,12.70
2023-03-19T03:31:38.161Z,13.33
2023-03-19T03:34:05.071Z,10.80
2023-03-19T03:36:32.514Z,11.30
2023-03-19T03:38:59.896Z,10.70
2023-03-19T03:41:26.966Z,12.03
2023-03-19T03:43:53.902Z,11.77
2023-03-19T03:46:20.936Z,10.97
2023-03-19T03:48:49.439Z,11.33
2023-03-19T03:51:16.348Z,10.90
2023-03-19T03:53:43.328Z,10.57
2023-03-19T03:56:10.304Z,10.30
2023-03-19T03:58:37.895Z,12.30
2023-03-19T04:01:04.917Z,10.63
2023-03-19T04:03:32.048Z,12.60
2023-03-19T04:05:59.019Z,11.17
2023-03-19T04:08:25.939Z,10.00
2023-03-19T04:10:52.843Z,9.87
2023-03-19T04:13:20.384Z,9.70
2023-03-19T04:15:47.816Z,10.30
2023-03-19T04:18:14.753Z,10.50
2023-03-19T04:20:42.087Z,10.03
2023-03-19T04:23:09.004Z,9.97
2023-03-19T04:25:38.850Z,10.90
2023-03-19T04:28:05.820Z,9.93
2023-03-19T04:30:35.337Z,9.77
2023-03-19T04:33:03.568Z,10.60
2023-03-19T04:35:31.353Z,9.20
2023-03-19T04:37:58.317Z,9.87
2023-03-19T04:40:25.315Z,10.30
2023-03-19T04:42:52.313Z,9.97
2023-03-19T04:45:19.702Z,9.73
2023-03-19T04:47:47.017Z,9.77
2023-03-19T04:50:14.675Z,9.70
2023-03-19T04:52:41.751Z,9.63
2023-03-19T04:55:09.093Z,9.53
2023-03-19T04:57:36.853Z,9.87
2023-03-19T05:00:04.032Z,8.97
2023-03-19T05:02:31.117Z,10.23
2023-03-19T05:04:58.040Z,9.50
2023-03-19T05:07:25.066Z,8.97
2023-03-19T05:09:52.161Z,9.13
2023-03-19T05:12:19.089Z,9.27
2023-03-19T05:14:46.510Z,8.87
2023-03-19T05:17:15.249Z,8.43
2023-03-19T05:19:42.466Z,7.37
2023-03-19T05:22:09.541Z,8.30
2023-03-19T05:24:36.581Z,8.97
2023-03-19T05:27:03.580Z,8.97
2023-03-19T05:29:30.778Z,8.67
2023-03-19T05:31:57.718Z,8.93
2023-03-19T05:34:24.667Z,9.60
2023-03-19T05:36:51.921Z,10.07
2023-03-19T05:39:19.599Z,9.37
2023-03-19T05:41:46.768Z,9.20
2023-03-19T05:44:13.670Z,9.13
2023-03-19T05:46:41.705Z,9.17
2023-03-19T05:49:08.702Z,9.53
2023-03-19T05:51:36.845Z,9.00
2023-03-19T05:54:04.137Z,8.90
2023-03-19T05:56:31.024Z,9.70
2023-03-19T05:58:57.980Z,9.30
2023-03-19T06:01:25.092Z,8.50
2023-03-19T06:03:52.102Z,9.00
2023-03-19T06:06:19.072Z,8.20
2023-03-19T06:08:46.840Z,9.07
2023-03-19T06:11:13.916Z,7.67
2023-03-19T06:13:40.973Z,8.23
2023-03-19T06:16:08.331Z,8.43
2023-03-19T06:18:35.338Z,9.27
2023-03-19T06:21:02.307Z,7.93
2023-03-19T06:23:29.260Z,8.10
2023-03-19T06:25:56.439Z,8.30
2023-03-19T06:28:23.654Z,7.97
2023-03-19T06:30:50.668Z,8.03
2023-03-19T06:33:17.606Z,7.57
2023-03-19T06:35:44.659Z,6.80
2023-03-19T06:38:11.690Z,7.40
2023-03-19T06:40:38.713Z,6.80
2023-03-19T06:43:05.749Z,8.03
2023-03-19T06:45:32.706Z,7.40
2023-03-19T06:47:59.650Z,6.57
2023-03-19T06:50:27.288Z,7.33
2023-03-19T06:52:54.234Z,8.17
2023-03-19T06:55:21.141Z,8.40
2023-03-19T06:57:51.513Z,9.17
2023-03-19T07:00:19.321Z,9.53
2023-03-19T07:02:46.475Z,8.43
2023-03-19T07:05:13.841Z,9.73
2023-03-19T07:07:41.066Z,8.13
2023-03-19T07:10:08.890Z,8.77
2023-03-19T07:12:36.187Z,8.30
2023-03-19T07:15:04.828Z,8.37
2023-03-19T07:17:31.816Z,9.23
2023-03-19T07:19:58.834Z,8.80
2023-03-19T07:22:25.792Z,9.10
2023-03-19T07:24:52.696Z,9.43
2023-03-19T07:27:19.632Z,9.77
2023-03-19T07:29:46.532Z,9.27
2023-03-19T07:32:13.755Z,8.93
2023-03-19T07:34:40.771Z,8.70
2023-03-19T07:37:07.913Z,9.37
2023-03-19T07:39:35.041Z,9.57
2023-03-19T07:42:01.967Z,9.57
2023-03-19T07:44:28.878Z,9.70
2023-03-19T07:46:55.915Z,12.17
2023-03-19T07:49:23.886Z,15.33
2023-03-19T07:51:51.258Z,11.23
2023-03-19T07:54:18.305Z,10.40
2023-03-19T07:56:45.411Z,10.90
2023-03-19T07:59:12.492Z,13.67
2023-03-19T08:01:39.417Z,8.93
2023-03-19T08:04:06.560Z,7.70
2023-03-19T08:06:33.640Z,8.90
2023-03-19T08:09:00.874Z,8.40
2023-03-19T08:11:29.889Z,8.63
2023-03-19T08:13:56.993Z,8.63
2023-03-19T08:16:24.133Z,8.60
2023-03-19T08:18:52.537Z,8.90
2023-03-19T08:21:19.642Z,8.73
2023-03-19T08:23:46.699Z,8.77
2023-03-19T08:26:14.964Z,8.77
2023-03-19T08:28:42.057Z,9.57
2023-03-19T08:31:11.412Z,8.40
2023-03-19T08:33:38.909Z,10.07
2023-03-19T08:36:14.101Z,9.23
2023-03-19T08:38:41.744Z,9.63
2023-03-19T08:41:09.966Z,10.07
2023-03-19T08:43:37.543Z,9.90
2023-03-19T08:46:05.697Z,10.20
2023-03-19T08:48:32.848Z,10.27
2023-03-19T08:51:02.689Z,9.83
2023-03-19T08:53:30.076Z,11.60
2023-03-19T08:56:02.775Z,12.23
2023-03-19T08:58:30.293Z,10.20
2023-03-19T09:01:10.012Z,11.43
2023-03-19T09:03:37.922Z,12.13
2023-03-19T09:06:07.020Z,11.10
2023-03-19T09:08:35.600Z,11.60
2023-03-19T09:11:02.927Z,11.27
2023-03-19T09:13:30.554Z,11.43
2023-03-19T09:15:57.600Z,11.17
2023-03-19T09:18:25.593Z,11.80
2023-03-19T09:20:53.986Z,10.83
2023-03-19T09:23:21.819Z,10.90
2023-03-19T09:25:49.324Z,10.30
2023-03-19T09:28:16.757Z,11.40
2023-03-19T09:30:47.405Z,10.93
2023-03-19T09:33:15.224Z,9.83
2023-03-19T09:35:42.851Z,9.30
2023-03-19T09:38:10.284Z,9.50
2023-03-19T09:40:43.618Z,10.77
2023-03-19T09:43:34.500Z,11.10
2023-03-19T09:46:04.828Z,9.53
2023-03-19T09:48:49.167Z,9.87
2023-03-19T09:51:21.909Z,9.87
2023-03-19T09:53:59.493Z,8.80
2023-03-19T09:56:27.142Z,9.10
2023-03-19T09:58:54.398Z,9.10
2023-03-19T10:01:26.798Z,8.60
2023-03-19T10:04:20.813Z,8.77
2023-03-19T10:06:47.897Z,8.60
2023-03-19T10:09:38.835Z,8.70
2023-03-19T10:12:12.192Z,8.07
2023-03-19T10:15:16.248Z,8.00
2023-03-19T10:17:56.484Z,8.30
2023-03-19T10:20:34.826Z,7.80
2023-03-19T10:23:25.269Z,8.53
2023-03-19T10:25:58.389Z,7.83
2023-03-19T10:28:27.884Z,8.23
2023-03-19T10:31:25.131Z,7.33
2023-03-19T10:34:10.795Z,7.83
2023-03-19T10:36:38.758Z,9.33
2023-03-19T10:39:07.914Z,8.90
2023-03-19T10:41:57.923Z,9.27
2023-03-19T10:44:30.262Z,8.37
2023-03-19T10:47:17.635Z,8.30
2023-03-19T10:49:44.630Z,8.47
2023-03-19T10:52:32.323Z,8.60
2023-03-19T10:55:15.439Z,8.20
2023-03-19T10:57:44.202Z,9.70
2023-03-19T11:00:23.155Z,9.60
2023-03-19T11:02:54.530Z,10.90
2023-03-19T11:05:22.003Z,10.03
2023-03-19T11:08:03.979Z,9.97
2023-03-19T11:10:34.189Z,9.37
2023-03-19T11:13:22.256Z,10.43
2023-03-19T11:15:49.797Z,10.03
2023-03-19T11:18:27.934Z,10.33
2023-03-19T11:21:07.455Z,9.87
2023-03-19T11:23:42.442Z,9.10
2023-03-19T11:26:10.467Z,10.40
2023-03-19T11:28:38.182Z,11.03
2023-03-19T11:31:10.324Z,10.60
2023-03-19T11:33:51.405Z,11.40
2023-03-19T11:36:46.565Z,12.13
2023-03-19T11:45:28.295Z,11.00
2023-03-19T11:48:22.745Z,10.43
2023-03-19T11:51:13.579Z,10.20
2023-03-19T11:54:15.512Z,9.23
2023-03-19T11:56:55.660Z,9.73
2023-03-19T11:59:41.152Z,9.73
2023-03-19T12:02:51.713Z,9.47
2023-03-19T12:05:33.735Z,8.80
2023-03-19T12:08:01.037Z,8.83
2023-03-19T12:10:40.395Z,8.67
2023-03-19T12:13:28.721Z,7.47
2023-03-19T12:16:18.478Z,8.57
2023-03-19T12:18:57.831Z,9.03
2023-03-19T12:21:53.579Z,7.50
2023-03-19T12:24:45.453Z,7.80
2023-03-19T12:27:47.836Z,8.73
2023-03-19T12:30:17.568Z,7.97
2023-03-19T12:33:11.921Z,8.53
2023-03-19T12:35:40.943Z,8.47
2023-03-19T12:38:39.395Z,7.40
2023-03-19T12:41:19.425Z,7.87
2023-03-19T12:43:56.003Z,7.07
2023-03-19T12:46:49.169Z,7.33
2023-03-19T12:49:41.993Z,7.50
2023-03-19T12:52:26.785Z,8.07
2023-03-19T12:55:03.344Z,7.67
2023-03-19T12:58:01.143Z,8.10
2023-03-19T13:00:52.738Z,8.33
2023-03-19T13:03:31.412Z,8.17
2023-03-19T13:06:17.408Z,8.23
2023-03-19T13:08:55.330Z,7.20
2023-03-19T13:11:38.393Z,7.13
2023-03-19T13:14:35.093Z,7.17
2023-03-19T13:17:25.951Z,7.90
2023-03-19T13:19:54.487Z,7.73
2023-03-19T13:22:31.577Z,6.57
2023-03-19T13:25:00.386Z,7.20
2023-03-19T13:27:34.585Z,6.17
2023-03-19T13:30:16.496Z,7.20
2023-03-19T13:32:49.266Z,8.03
2023-03-19T13:35:19.230Z,6.57
2023-03-19T13:37:47.567Z,6.23
2023-03-19T13:40:48.596Z,6.33
2023-03-19T13:43:30.551Z,6.30
2023-03-19T13:46:03.516Z,7.30
2023-03-19T13:48:30.479Z,6.40
2023-03-19T13:51:06.365Z,6.27
2023-03-19T13:54:05.013Z,7.37
2023-03-19T13:56:33.966Z,5.77
2023-03-19T13:59:27.746Z,7.37
2023-03-19T14:01:55.807Z,5.73
2023-03-19T14:04:22.879Z,6.03
2023-03-19T14:06:55.429Z,5.90
2023-03-19T14:09:36.559Z,6.80
2023-03-19T14:12:18.537Z,7.30
2023-03-19T14:15:00.185Z,7.10
2023-03-19T14:17:34.675Z,6.40
2023-03-19T14:20:36.529Z,6.63
2023-03-19T14:23:09.201Z,6.30
2023-03-19T14:25:55.220Z,7.10
2023-03-19T14:28:45.018Z,6.63
2023-03-19T14:31:26.799Z,7.43
2023-03-19T14:34:17.029Z,6.47
2023-03-19T14:37:12.792Z,6.90
2023-03-19T14:39:44.875Z,7.80
2023-03-19T14:42:19.140Z,7.17
2023-03-19T14:45:15.504Z,8.03
2023-03-19T14:48:21.528Z,7.50
2023-03-19T14:50:57.452Z,8.53
2023-03-19T14:53:25.985Z,6.57
2023-03-19T14:55:53.645Z,6.60
2023-03-19T14:58:21.708Z,6.40
2023-03-19T15:00:54.514Z,5.93
2023-03-19T15:03:32.449Z,6.87
2023-03-19T15:06:01.423Z,5.63
2023-03-19T15:08:32.126Z,6.97
2023-03-19T15:11:10.628Z,6.80
2023-03-19T15:13:46.541Z,7.00
2023-03-19T15:16:43.990Z,6.23
2023-03-19T15:19:12.306Z,5.90
2023-03-19T15:21:39.687Z,5.97
2023-03-19T15:24:14.643Z,7.00
2023-03-19T15:26:41.965Z,7.03
2023-03-19T15:29:12.456Z,6.60
2023-03-19T15:31:55.003Z,7.13
2023-03-19T15:34:30.121Z,6.63
2023-03-19T15:37:08.456Z,7.30
2023-03-19T15:39:40.652Z,7.30
2023-03-19T15:42:07.670Z,8.63
2023-03-19T15:44:45.050Z,9.40
2023-03-19T15:47:17.638Z,8.87
2023-03-19T15:49:54.712Z,9.73
2023-03-19T15:52:22.134Z,8.47
2023-03-19T15:54:49.114Z,9.73
2023-03-19T15:57:18.260Z,8.67
2023-03-19T15:59:46.641Z,10.47
2023-03-19T16:02:39.561Z,8.30
2023-03-19T16:05:21.367Z,9.73
2023-03-19T16:08:00.399Z,9.17
2023-03-19T16:10:43.806Z,9.13
2023-03-19T16:13:40.351Z,11.73
2023-03-19T16:16:17.470Z,8.10
2023-03-19T16:19:03.119Z,8.73
2023-03-19T16:21:41.458Z,9.43
2023-03-19T16:24:08.508Z,8.60
2023-03-19T16:26:41.295Z,7.83
2023-03-19T16:29:39.932Z,6.80
2023-03-19T16:32:15.722Z,6.33
2023-03-19T16:34:55.776Z,6.10
2023-03-19T16:38:09.332Z,5.27
2023-03-19T16:40:43.307Z,5.30
2023-03-19T16:43:22.180Z,5.07
2023-03-19T16:46:12.548Z,4.97
2023-03-19T16:48:39.837Z,4.97
2023-03-19T16:51:25.011Z,4.40
2023-03-19T16:53:52.017Z,4.53
2023-03-19T16:56:19.789Z,4.43
2023-03-19T16:58:48.352Z,4.73
2023-03-19T17:01:21.100Z,4.53
2023-03-19T17:03:49.796Z,4.03
2023-03-19T17:06:17.212Z,4.73
2023-03-19T17:08:44.747Z,4.33
2023-03-19T17:11:25.402Z,4.37
2023-03-19T17:13:54.083Z,4.43
2023-03-19T17:16:21.346Z,4.23
2023-03-19T17:18:48.465Z,4.57
2023-03-19T17:21:31.282Z,3.63
2023-03-19T17:23:59.473Z,5.20
2023-03-19T17:26:28.786Z,3.63
2023-03-19T17:28:57.006Z,3.33
2023-03-19T17:31:31.842Z,4.40
2023-03-19T17:34:15.465Z,7.77
2023-03-19T17:36:47.596Z,4.10
2023-03-19T17:39:14.554Z,4.10
2023-03-19T17:41:41.607Z,3.83
2023-03-19T17:44:09.088Z,11.93
2023-03-19T17:46:42.133Z,8.60
2023-03-19T17:49:19.780Z,5.97
2023-03-19T17:51:47.124Z,4.50
2023-03-19T17:54:14.425Z,7.43
2023-03-19T17:56:43.436Z,5.07
2023-03-19T17:59:11.191Z,5.27
2023-03-19T18:01:40.263Z,6.33
2023-03-19T18:04:09.881Z,5.53
2023-03-19T18:06:51.119Z,7.73
2023-03-19T18:09:28.559Z,4.80
2023-03-19T18:11:55.897Z,5.43
2023-03-19T18:14:22.967Z,4.13
2023-03-19T18:16:50.323Z,4.10
2023-03-19T18:19:30.217Z,4.50
2023-03-19T18:21:57.205Z,3.60
2023-03-19T18:24:24.131Z,4.17
2023-03-19T18:26:51.066Z,3.37
2023-03-19T18:29:18.147Z,3.13
2023-03-19T18:31:47.479Z,3.30
2023-03-19T18:34:16.592Z,4.47
2023-03-19T18:36:43.767Z,7.60
2023-03-19T18:39:14.062Z,4.30
2023-03-19T18:41:42.083Z,9.80
2023-03-19T18:44:10.390Z,9.40
2023-03-19T18:46:38.668Z,5.07
2023-03-19T18:49:16.090Z,3.27
2023-03-19T18:51:55.059Z,9.10
2023-03-19T18:54:27.992Z,7.77
2023-03-19T18:56:56.174Z,10.40
2023-03-19T18:59:30.403Z,5.67
2023-03-19T19:02:19.468Z,12.93
2023-03-19T19:04:46.583Z,9.37
2023-03-19T19:07:15.323Z,10.37
2023-03-19T19:09:42.568Z,4.60
2023-03-19T19:12:14.386Z,4.27
2023-03-19T19:14:41.860Z,8.70
2023-03-19T19:17:18.258Z,8.70
2023-03-19T19:19:45.532Z,7.13
2023-03-19T19:22:19.438Z,4.80
2023-03-19T19:24:46.628Z,6.70
2023-03-19T19:27:23.401Z,8.90
2023-03-19T19:29:50.991Z,7.90
2023-03-19T19:32:27.220Z,4.03
2023-03-19T19:34:54.640Z,9.43
2023-03-19T19:37:23.598Z,5.10
2023-03-19T19:39:51.232Z,3.13
2023-03-19T19:42:21.742Z,2.97
2023-03-19T19:44:54.390Z,6.57
2023-03-19T19:47:21.770Z,6.90
2023-03-19T19:49:48.761Z,3.07
2023-03-19T19:52:19.475Z,2.67
2023-03-19T19:54:47.204Z,1.93
2023-03-19T19:57:18.750Z,6.50
2023-03-19T19:59:46.333Z,6.23
2023-03-19T20:02:28.787Z,4.40
2023-03-19T20:04:56.960Z,2.60
2023-03-19T20:07:24.174Z,2.37
2023-03-19T20:09:51.558Z,7.30
2023-03-19T20:12:21.646Z,10.03
2023-03-19T20:14:50.046Z,3.63
2023-03-19T20:17:18.718Z,7.07
2023-03-19T20:19:45.733Z,2.60
2023-03-19T20:22:12.726Z,9.57
2023-03-19T20:24:39.660Z,12.87
2023-03-19T20:27:20.300Z,4.70
2023-03-19T20:29:47.622Z,12.77
2023-03-19T20:32:38.868Z,3.87
2023-03-19T20:35:16.393Z,18.33
2023-03-19T20:37:43.516Z,19.50
2023-03-19T20:40:12.593Z,13.43
2023-03-19T20:42:40.996Z,5.60
2023-03-19T20:45:16.045Z,17.90
2023-03-19T20:47:43.297Z,4.50
2023-03-19T20:50:17.527Z,2.90
2023-03-19T20:52:44.612Z,7.50
2023-03-19T20:55:16.879Z,11.73
2023-03-19T20:57:46.021Z,10.70
2023-03-19T21:00:35.954Z,4.00
2023-03-19T21:03:03.071Z,6.23
2023-03-19T21:05:39.170Z,1.73
2023-03-19T21:08:20.550Z,3.53
2023-03-19T21:10:49.227Z,4.87
2023-03-19T21:13:18.566Z,11.33
2023-03-19T21:15:46.994Z,5.33
2023-03-19T21:18:14.212Z,9.13
2023-03-19T21:20:43.733Z,7.30
2023-03-19T21:23:22.802Z,3.13
2023-03-19T21:25:50.062Z,9.90
2023-03-19T21:28:34.463Z,4.37
2023-03-19T21:31:02.235Z,15.40
2023-03-19T21:33:32.864Z,14.27
2023-03-19T21:36:02.066Z,15.03
2023-03-19T21:38:29.124Z,10.73
2023-03-19T21:40:59.848Z,3.50
2023-03-19T21:43:50.059Z,2.67
2023-03-19T21:46:24.575Z,4.00
2023-03-19T21:48:54.575Z,18.40
2023-03-19T21:51:22.600Z,8.77
2023-03-19T21:53:49.769Z,14.40
2023-03-19T21:56:23.281Z,9.17
2023-03-19T21:58:53.535Z,2.33
2023-03-19T22:01:23.849Z,8.07
2023-03-19T22:03:52.010Z,3.63
2023-03-19T22:06:19.247Z,2.47
2023-03-19T22:08:48.262Z,1.70
2023-03-19T22:11:38.354Z,3.73
2023-03-19T22:14:05.430Z,6.20
2023-03-19T22:16:33.161Z,1.50
2023-03-19T22:19:00.197Z,10.03
2023-03-19T22:21:31.010Z,1.60
2023-03-19T22:23:57.973Z,13.83
2023-03-19T22:26:29.291Z,12.40
2023-03-19T22:28:58.800Z,9.07
2023-03-19T22:31:26.117Z,8.67
2023-03-19T22:33:53.622Z,9.33
2023-03-19T22:36:20.855Z,3.90
2023-03-19T22:38:48.946Z,2.73
2023-03-19T22:41:34.781Z,3.17
2023-03-19T22:44:05.206Z,2.40
2023-03-19T22:46:32.643Z,3.90
2023-03-19T22:48:59.596Z,3.63
2023-03-19T22:51:27.751Z,2.60
2023-03-19T22:53:55.490Z,4.47
2023-03-19T22:56:22.867Z,5.57
2023-03-19T22:58:49.849Z,5.40
2023-03-19T23:01:52.251Z,16.63
2023-03-19T23:04:26.408Z,5.00
2023-03-19T23:06:55.472Z,4.50
2023-03-19T23:09:24.180Z,3.03
2023-03-19T23:11:51.782Z,13.50
2023-03-19T23:14:29.030Z,5.60
2023-03-19T23:17:00.078Z,13.60
2023-03-19T23:19:32.687Z,5.83
2023-03-19T23:22:02.546Z,8.67
2023-03-19T23:24:30.736Z,6.70
2023-03-19T23:26:59.107Z,14.63
2023-03-19T23:29:32.381Z,2.37
2023-03-19T23:32:00.511Z,6.23
2023-03-19T23:34:28.673Z,4.80
2023-03-19T23:36:56.263Z,3.47
2023-03-19T23:39:24.042Z,10.90
2023-03-19T23:41:55.705Z,3.70
2023-03-19T23:44:22.698Z,3.23
2023-03-19T23:46:50.896Z,3.40
2023-03-19T23:49:27.129Z,9.27
2023-03-19T23:51:54.080Z,12.87
2023-03-19T23:54:36.660Z,4.13
2023-03-19T23:57:11.665Z,4.10
2023-03-19T23:59:41.870Z,6.27
